Time;durP1;ratioP1;P1;durP2;ratioP2;P2;SDS_P1;SDS_P2;PMS_P1;PMS_P2;Temp;Humidity;BMP_temperature;BMP_pressure;BME280_temperature;BME280_humidity;BME280_pressure;Samples;Min_cycle;Max_cycle;Signal;HPM_P1;HPM_P2
2021/08/30 00:00:09;;;;;;;15.35;10.63;;;16.40;98.40;;;;;;5051068;28;20065;-58
2021/08/30 00:02:35;;;;;;;15.90;10.40;;;16.40;98.30;;;;;;5060089;28;20112;-58
2021/08/30 00:05:03;;;;;;;18.42;10.63;;;16.40;98.30;;;;;;5057036;28;20087;-58
2021/08/30 00:07:28;;;;;;;17.20;10.20;;;16.40;98.20;;;;;;5025570;28;20051;-58
2021/08/30 00:09:54;;;;;;;15.90;10.27;;;16.40;98.20;;;;;;5035432;28;20405;-58
2021/08/30 00:12:19;;;;;;;17.80;11.10;;;16.40;98.20;;;;;;5040376;28;20585;-58
2021/08/30 00:14:47;;;;;;;20.25;11.13;;;16.40;98.30;;;;;;5049618;28;20029;-58
2021/08/30 00:17:13;;;;;;;18.48;10.57;;;16.40;98.40;;;;;;5060356;28;20028;-58
2021/08/30 00:19:38;;;;;;;18.40;11.45;;;16.40;98.40;;;;;;5053081;28;20099;-58
2021/08/30 00:22:04;;;;;;;19.67;11.10;;;16.40;98.40;;;;;;5046509;28;20401;-58
2021/08/30 00:24:30;;;;;;;18.02;11.15;;;16.40;98.60;;;;;;5053861;28;20079;-58
2021/08/30 00:26:56;;;;;;;17.45;11.77;;;16.40;98.50;;;;;;5052716;28;20044;-56
2021/08/30 00:29:25;;;;;;;16.50;11.38;;;16.40;98.60;;;;;;5034619;28;20037;-56
2021/08/30 00:31:58;;;;;;;17.05;11.40;;;16.30;98.60;;;;;;5042514;28;20434;-55
2021/08/30 00:34:24;;;;;;;19.55;11.75;;;16.30;98.60;;;;;;5040919;28;20029;-55
2021/08/30 00:36:50;;;;;;;16.85;11.18;;;16.30;98.70;;;;;;5057699;28;20521;-55
2021/08/30 00:39:23;;;;;;;19.45;12.38;;;16.30;98.70;;;;;;5058450;28;20048;-55
2021/08/30 00:41:51;;;;;;;19.25;12.10;;;16.40;98.70;;;;;;5057090;28;20047;-56
2021/08/30 00:44:17;;;;;;;20.58;12.98;;;16.40;98.80;;;;;;5061343;28;20129;-57
2021/08/30 00:46:42;;;;;;;18.17;12.10;;;16.30;98.80;;;;;;5054469;28;20543;-56
2021/08/30 00:49:08;;;;;;;21.83;11.85;;;16.30;98.80;;;;;;5058670;28;20500;-56
2021/08/30 00:51:34;;;;;;;26.48;12.85;;;16.30;98.90;;;;;;5060381;28;20064;-56
2021/08/30 00:54:03;;;;;;;20.75;12.45;;;16.30;98.90;;;;;;5057052;28;20063;-56
2021/08/30 00:56:29;;;;;;;19.55;12.45;;;16.30;99.00;;;;;;5058797;28;20037;-54
2021/08/30 00:58:56;;;;;;;18.40;12.27;;;16.30;99.00;;;;;;5056614;28;20079;-57
2021/08/30 01:01:28;;;;;;;20.00;12.02;;;16.30;99.10;;;;;;5059878;28;20068;-57
2021/08/30 01:03:57;;;;;;;;;;;16.30;99.10;;;;;;5054956;28;20097;-51
2021/08/30 01:06:40;;;;;;;19.25;13.05;;;16.30;99.20;;;;;;5036981;28;20380;-52
2021/08/30 01:09:57;;;;;;;22.35;12.75;;;16.30;99.20;;;;;;5050321;28;20041;-56
2021/08/30 01:12:42;;;;;;;23.67;13.00;;;16.30;99.30;;;;;;4973643;28;20119;-53
2021/08/30 01:15:24;;;;;;;19.88;12.25;;;16.30;99.20;;;;;;5051772;28;20102;-54
2021/08/30 01:17:51;;;;;;;17.80;12.88;;;16.30;99.30;;;;;;5057361;28;20040;-51
2021/08/30 01:20:57;;;;;;;20.73;12.90;;;16.30;99.30;;;;;;5024346;28;20046;-57
2021/08/30 01:23:28;;;;;;;20.60;13.68;;;16.30;99.40;;;;;;5044969;28;20041;-53
2021/08/30 01:25:59;;;;;;;23.85;13.88;;;16.30;99.40;;;;;;5050262;28;20566;-55
2021/08/30 01:28:34;;;;;;;24.08;13.85;;;16.30;99.50;;;;;;5014570;28;20049;-56
2021/08/30 01:31:51;;;;;;;25.33;13.32;;;16.30;99.50;;;;;;5050846;28;20123;-54
2021/08/30 01:34:18;;;;;;;26.67;14.32;;;16.30;99.60;;;;;;5026879;28;20052;-52
2021/08/30 01:36:45;;;;;;;24.75;14.20;;;16.30;99.60;;;;;;5047248;28;20052;-54
2021/08/30 01:39:11;;;;;;;21.77;14.15;;;16.40;99.60;;;;;;5030782;28;20037;-53
2021/08/30 01:41:38;;;;;;;23.40;14.05;;;16.40;99.70;;;;;;5045834;28;20417;-52
2021/08/30 01:44:06;;;;;;;24.92;14.30;;;16.40;99.90;;;;;;5051437;28;20116;-55
2021/08/30 01:46:33;;;;;;;21.67;13.88;;;16.40;99.70;;;;;;5045709;28;20513;-52
2021/08/30 01:48:59;;;;;;;29.08;14.90;;;16.50;99.80;;;;;;5012933;28;20048;-56
2021/08/30 01:51:27;;;;;;;22.92;13.52;;;16.40;99.80;;;;;;5045441;28;20041;-54
2021/08/30 01:53:55;;;;;;;25.27;15.07;;;16.40;99.80;;;;;;5051311;28;20040;-53
2021/08/30 01:56:25;;;;;;;28.70;15.00;;;16.40;99.80;;;;;;5053302;28;20025;-57
2021/08/30 02:01:36;;;;;;;23.88;14.20;;;16.40;99.90;;;;;;5039250;28;20107;-56
2021/08/30 02:04:07;;;;;;;26.63;13.98;;;16.40;99.90;;;;;;5026489;28;20049;-54
2021/08/30 02:06:34;;;;;;;25.20;14.55;;;16.40;99.90;;;;;;5056388;28;20036;-54
2021/08/30 02:09:00;;;;;;;25.30;14.75;;;16.40;99.90;;;;;;5054188;28;20052;-54
2021/08/30 02:11:32;;;;;;;24.25;14.45;;;16.40;99.90;;;;;;5031245;28;20059;-54
2021/08/30 02:13:58;;;;;;;24.45;14.57;;;16.40;99.90;;;;;;5037614;28;20033;-55
2021/08/30 02:16:26;;;;;;;26.67;15.68;;;16.40;99.90;;;;;;5053320;28;20175;-56
2021/08/30 02:19:29;;;;;;;24.55;14.98;;;16.40;99.90;;;;;;5046169;28;20108;-54
2021/08/30 02:22:01;;;;;;;28.05;14.93;;;16.40;99.90;;;;;;5038420;28;20037;-55
2021/08/30 02:24:38;;;;;;;31.65;15.68;;;16.40;99.90;;;;;;5057737;28;20045;-56
2021/08/30 02:27:20;;;;;;;28.10;16.23;;;16.40;99.90;;;;;;5054765;28;20075;-56
2021/08/30 02:30:05;;;;;;;24.27;16.02;;;16.50;99.90;;;;;;5020573;28;20051;-56
2021/08/30 02:32:32;;;;;;;30.95;15.98;;;16.40;99.90;;;;;;5055249;28;20304;-57
2021/08/30 02:35:04;;;;;;;33.72;16.83;;;16.40;99.90;;;;;;5037514;28;20041;-56
2021/08/30 02:37:35;;;;;;;38.38;17.85;;;16.40;99.90;;;;;;5025511;28;20041;-55
2021/08/30 02:40:03;;;;;;;30.75;16.67;;;16.40;99.90;;;;;;5042048;28;20040;-56
2021/08/30 02:42:34;;;;;;;35.53;18.05;;;16.40;99.90;;;;;;5053677;28;20060;-51
2021/08/30 02:45:04;;;;;;;38.55;17.00;;;16.40;99.90;;;;;;5051589;28;20041;-56
2021/08/30 02:47:30;;;;;;;33.90;17.33;;;16.40;99.90;;;;;;5050051;28;20041;-56
2021/08/30 02:49:57;;;;;;;34.15;17.30;;;16.40;99.90;;;;;;5050574;28;20048;-54
2021/08/30 02:52:24;;;;;;;30.88;16.98;;;16.40;99.90;;;;;;5051134;28;20033;-55
2021/08/30 02:54:56;;;;;;;30.73;18.08;;;16.40;99.90;;;;;;5052108;28;20041;-53
2021/08/30 02:57:24;;;;;;;35.13;18.00;;;16.40;99.90;;;;;;5031936;28;20111;-54
2021/08/30 02:59:54;;;;;;;31.73;17.58;;;16.40;99.90;;;;;;5033512;28;20041;-54
2021/08/30 03:02:21;;;;;;;32.60;17.23;;;16.40;99.90;;;;;;5051269;28;20048;-57
2021/08/30 03:04:47;;;;;;;36.97;18.58;;;16.40;99.90;;;;;;5033377;28;20033;-57
2021/08/30 03:07:13;;;;;;;33.33;18.70;;;16.40;99.90;;;;;;5016268;28;20037;-56
2021/08/30 03:09:39;;;;;;;32.63;18.70;;;16.40;99.90;;;;;;5047204;28;20037;-56
2021/08/30 03:12:07;;;;;;;33.60;18.00;;;16.40;99.90;;;;;;5003756;28;20076;-56
2021/08/30 03:14:39;;;;;;;43.00;18.17;;;16.40;99.90;;;;;;5048276;28;20033;-56
2021/08/30 03:17:10;;;;;;;38.78;18.17;;;16.40;99.90;;;;;;5033075;28;20072;-57
2021/08/30 03:19:40;;;;;;;31.65;19.23;;;16.40;99.90;;;;;;5050220;28;20041;-56
2021/08/30 03:22:08;;;;;;;36.90;17.50;;;16.40;99.90;;;;;;5050722;28;20036;-57
2021/08/30 03:24:34;;;;;;;30.92;18.50;;;16.40;99.90;;;;;;5050614;28;20041;-57
2021/08/30 03:27:00;;;;;;;36.05;19.27;;;16.30;99.90;;;;;;4996465;28;20042;-56
2021/08/30 03:29:28;;;;;;;38.30;20.02;;;16.40;99.90;;;;;;5047355;28;20041;-56
2021/08/30 03:31:54;;;;;;;35.00;18.88;;;16.40;99.90;;;;;;5050420;28;20045;-56
2021/08/30 03:34:21;;;;;;;36.58;19.80;;;16.40;99.90;;;;;;5016842;28;20045;-57
2021/08/30 03:36:53;;;;;;;32.95;19.38;;;16.40;99.90;;;;;;5054746;28;20041;-55
2021/08/30 03:39:20;;;;;;;41.22;19.90;;;16.50;99.90;;;;;;5036857;28;20404;-55
2021/08/30 03:41:48;;;;;;;40.72;19.67;;;16.40;99.90;;;;;;5054387;28;20080;-56
2021/08/30 03:44:14;;;;;;;33.30;19.25;;;16.40;99.90;;;;;;5036653;28;20041;-56
2021/08/30 03:46:40;;;;;;;43.53;19.58;;;16.40;99.90;;;;;;5053465;28;20125;-56
2021/08/30 03:49:08;;;;;;;38.80;19.40;;;16.40;99.90;;;;;;5036932;28;20056;-56
2021/08/30 03:51:40;;;;;;;37.28;19.45;;;16.50;99.90;;;;;;5054484;28;20045;-56
2021/08/30 03:54:06;;;;;;;31.38;19.90;;;16.50;99.90;;;;;;5040702;28;20493;-55
2021/08/30 03:56:32;;;;;;;40.03;20.63;;;16.50;99.90;;;;;;5053608;28;20417;-56
2021/08/30 03:59:00;;;;;;;38.10;20.00;;;16.50;99.90;;;;;;5054956;28;20040;-55
2021/08/30 04:01:27;;;;;;;40.22;19.55;;;16.50;99.90;;;;;;5053977;28;20076;-55
2021/08/30 04:03:56;;;;;;;32.60;19.38;;;16.50;99.90;;;;;;5055127;28;20048;-56
2021/08/30 04:06:23;;;;;;;35.75;19.80;;;16.50;99.90;;;;;;5054197;28;20052;-54
2021/08/30 04:08:49;;;;;;;40.10;19.58;;;16.50;99.90;;;;;;5054105;28;20048;-54
2021/08/30 04:11:19;;;;;;;37.35;19.35;;;16.50;99.90;;;;;;5054516;28;20392;-57
2021/08/30 04:13:45;;;;;;;42.88;20.13;;;16.50;99.90;;;;;;5035862;28;20047;-54
2021/08/30 04:16:14;;;;;;;37.58;19.52;;;16.50;99.90;;;;;;5057456;28;20037;-55
2021/08/30 04:18:39;;;;;;;34.17;19.38;;;16.50;99.90;;;;;;5041063;28;20252;-51
2021/08/30 04:21:05;;;;;;;39.33;19.58;;;16.50;99.90;;;;;;5057737;28;20048;-53
2021/08/30 04:23:31;;;;;;;39.75;20.08;;;16.50;99.90;;;;;;5020654;28;20041;-51
2021/08/30 04:26:00;;;;;;;39.78;20.25;;;16.50;99.90;;;;;;5058242;28;20444;-55
2021/08/30 04:28:26;;;;;;;37.08;20.05;;;16.50;99.90;;;;;;5058691;28;20067;-54
2021/08/30 04:30:53;;;;;;;34.97;20.33;;;16.50;99.90;;;;;;5036902;28;20065;-53
2021/08/30 04:33:20;;;;;;;40.63;20.48;;;16.50;99.90;;;;;;5039611;28;20093;-53
2021/08/30 04:35:46;;;;;;;36.83;20.42;;;16.50;99.90;;;;;;5056453;28;20044;-52
2021/08/30 04:38:13;;;;;;;37.28;20.90;;;16.50;99.90;;;;;;5054891;28;20037;-56
2021/08/30 04:40:39;;;;;;;40.53;20.17;;;16.50;99.90;;;;;;5056598;28;20055;-53
2021/08/30 04:43:08;;;;;;;45.58;20.65;;;16.50;99.90;;;;;;5055433;28;20037;-54
2021/08/30 04:45:33;;;;;;;43.05;21.25;;;16.50;99.90;;;;;;5040658;28;20037;-54
2021/08/30 04:47:59;;;;;;;34.55;21.30;;;16.50;99.90;;;;;;5021000;28;20106;-54
2021/08/30 04:50:25;;;;;;;42.33;20.73;;;16.50;99.90;;;;;;5056429;28;20047;-55
2021/08/30 04:52:50;;;;;;;35.88;21.65;;;16.50;99.90;;;;;;5056821;28;20072;-52
2021/08/30 04:55:16;;;;;;;39.83;21.67;;;16.60;99.90;;;;;;5049738;28;20041;-55
2021/08/30 04:57:43;;;;;;;42.20;21.38;;;16.50;99.90;;;;;;5024876;28;20374;-53
2021/08/30 05:00:10;;;;;;;41.55;22.15;;;16.60;99.90;;;;;;5036680;28;20044;-55
2021/08/30 05:02:35;;;;;;;45.28;21.63;;;16.60;99.90;;;;;;5043182;28;20056;-52
2021/08/30 05:05:01;;;;;;;40.75;21.75;;;16.60;99.90;;;;;;5036392;28;20033;-49
2021/08/30 05:07:26;;;;;;;40.88;21.35;;;16.60;99.90;;;;;;5029857;28;20120;-51
2021/08/30 05:09:52;;;;;;;42.97;22.15;;;16.60;99.90;;;;;;5055929;28;20396;-53
2021/08/30 05:12:17;;;;;;;45.22;21.85;;;16.60;99.90;;;;;;5055289;28;20049;-52
2021/08/30 05:14:48;;;;;;;41.67;21.88;;;16.60;99.90;;;;;;5052448;28;20025;-50
2021/08/30 05:17:13;;;;;;;49.05;23.08;;;16.60;99.90;;;;;;5056529;28;20033;-54
2021/08/30 05:19:39;;;;;;;46.83;22.60;;;16.60;99.90;;;;;;5041492;28;20178;-52
2021/08/30 05:22:04;;;;;;;49.85;23.17;;;16.60;99.90;;;;;;5047188;28;20049;-50
2021/08/30 05:24:30;;;;;;;52.88;23.10;;;16.70;99.90;;;;;;5055280;28;20045;-52
2021/08/30 05:26:56;;;;;;;52.75;23.27;;;16.70;99.90;;;;;;5020125;28;20041;-53
2021/08/30 05:29:22;;;;;;;39.85;21.00;;;16.80;99.90;;;;;;5016150;28;20128;-53
2021/08/30 05:31:48;;;;;;;45.28;22.50;;;16.80;99.90;;;;;;5047588;28;20442;-49
2021/08/30 05:34:13;;;;;;;44.78;21.92;;;16.80;99.90;;;;;;5055428;28;20134;-49
2021/08/30 05:36:39;;;;;;;43.70;21.38;;;16.80;99.90;;;;;;5055174;28;20095;-55
2021/08/30 05:39:04;;;;;;;43.30;21.33;;;16.80;99.90;;;;;;5045738;28;20546;-56
2021/08/30 05:41:30;;;;;;;42.22;21.92;;;16.80;99.90;;;;;;5053218;28;20048;-56
2021/08/30 05:43:58;;;;;;;43.10;21.23;;;16.90;99.90;;;;;;5057332;28;20511;-57
2021/08/30 05:46:24;;;;;;;42.08;21.20;;;16.90;99.90;;;;;;5049510;28;20048;-56
2021/08/30 05:48:50;;;;;;;36.28;21.23;;;16.80;99.90;;;;;;5017976;28;20048;-55
2021/08/30 05:51:27;;;;;;;41.38;22.23;;;16.90;99.90;;;;;;5016308;28;20039;-56
2021/08/30 05:53:52;;;;;;;41.20;21.33;;;16.90;99.90;;;;;;5051889;28;20033;-54
2021/08/30 05:56:18;;;;;;;43.33;20.40;;;16.90;99.90;;;;;;5051672;28;20098;-55
2021/08/30 05:58:48;;;;;;;39.25;21.33;;;16.90;99.90;;;;;;5017275;28;20045;-53
2021/08/30 06:01:13;;;;;;;40.10;20.58;;;16.90;99.90;;;;;;5052443;28;20041;-51
2021/08/30 06:03:39;;;;;;;38.22;21.13;;;16.90;99.90;;;;;;5052057;28;20040;-52
2021/08/30 06:06:05;;;;;;;39.92;20.95;;;16.90;99.90;;;;;;5033514;28;20041;-55
2021/08/30 06:08:30;;;;;;;32.78;19.67;;;16.90;99.90;;;;;;5047764;28;20116;-55
2021/08/30 06:10:57;;;;;;;36.63;19.30;;;17.00;99.90;;;;;;5040859;28;20152;-54
2021/08/30 06:13:24;;;;;;;35.45;20.40;;;17.00;99.90;;;;;;5042282;28;20049;-50
2021/08/30 06:15:50;;;;;;;37.65;20.23;;;17.00;99.90;;;;;;5061884;28;20040;-50
2021/08/30 06:18:16;;;;;;;32.40;20.45;;;17.00;99.90;;;;;;5058551;28;20417;-54
2021/08/30 06:20:42;;;;;;;36.38;20.00;;;17.00;99.90;;;;;;5055414;28;20060;-52
2021/08/30 06:23:08;;;;;;;45.03;19.23;;;17.00;99.90;;;;;;5053947;28;20033;-53
2021/08/30 06:25:38;;;;;;;37.67;19.05;;;17.00;99.90;;;;;;5035308;28;20040;-57
2021/08/30 06:28:05;;;;;;;40.15;19.38;;;17.00;99.90;;;;;;5033281;28;20531;-57
2021/08/30 06:30:33;;;;;;;34.63;17.98;;;17.10;99.90;;;;;;5050861;28;20078;-55
2021/08/30 06:32:59;;;;;;;32.42;17.63;;;17.10;99.90;;;;;;5048478;28;20045;-56
2021/08/30 06:35:24;;;;;;;33.47;18.10;;;17.10;99.90;;;;;;5020285;28;20116;-57
2021/08/30 06:37:50;;;;;;;39.45;18.08;;;17.20;99.90;;;;;;5050603;28;20037;-57
2021/08/30 06:40:17;;;;;;;33.15;18.02;;;17.20;99.90;;;;;;5047345;28;20037;-56
2021/08/30 06:42:44;;;;;;;31.92;18.27;;;17.20;99.90;;;;;;5045591;28;20037;-56
2021/08/30 06:45:10;;;;;;;34.53;17.92;;;17.20;99.90;;;;;;5042008;28;20025;-56
2021/08/30 06:47:37;;;;;;;30.88;17.48;;;17.20;99.90;;;;;;5046372;28;20091;-55
2021/08/30 06:50:04;;;;;;;32.75;17.02;;;17.20;99.90;;;;;;5051122;28;20048;-51
2021/08/30 06:52:30;;;;;;;32.38;17.00;;;17.30;99.90;;;;;;5028934;28;20090;-52
2021/08/30 06:54:56;;;;;;;29.65;16.33;;;17.40;99.90;;;;;;5050605;28;20040;-52
2021/08/30 06:57:21;;;;;;;29.25;16.83;;;17.50;99.90;;;;;;5032254;28;20091;-54
2021/08/30 06:59:47;;;;;;;28.35;16.70;;;17.50;99.90;;;;;;5050713;28;20029;-51
2021/08/30 07:02:16;;;;;;;26.75;16.38;;;17.50;99.90;;;;;;5049200;28;20123;-57
2021/08/30 07:04:42;;;;;;;27.00;15.30;;;17.50;99.90;;;;;;5030665;28;20041;-55
2021/08/30 07:07:08;;;;;;;28.65;15.43;;;17.50;99.90;;;;;;5013194;28;20048;-57
2021/08/30 07:09:34;;;;;;;30.55;16.50;;;17.70;99.90;;;;;;5050142;28;20048;-54
2021/08/30 07:11:59;;;;;;;26.70;15.13;;;17.60;99.90;;;;;;5050497;28;20045;-54
2021/08/30 07:14:25;;;;;;;27.45;14.95;;;17.80;99.50;;;;;;5050089;28;20044;-55
2021/08/30 07:16:51;;;;;;;27.35;15.38;;;17.70;99.70;;;;;;5050088;28;20045;-54
2021/08/30 07:19:17;;;;;;;25.25;15.38;;;17.70;99.80;;;;;;5000334;28;20175;-53
2021/08/30 07:21:44;;;;;;;21.25;14.50;;;17.80;99.60;;;;;;5033818;28;20036;-55
2021/08/30 07:24:09;;;;;;;23.30;15.73;;;17.70;99.80;;;;;;5032835;28;20557;-53
2021/08/30 07:26:36;;;;;;;27.85;14.57;;;17.80;99.50;;;;;;5051318;28;20119;-53
2021/08/30 07:29:02;;;;;;;24.25;15.07;;;17.80;99.50;;;;;;5049237;28;20041;-54
2021/08/30 07:31:27;;;;;;;21.27;13.70;;;17.80;99.70;;;;;;5051128;28;20044;-55
2021/08/30 07:33:55;;;;;;;22.45;13.63;;;17.90;99.10;;;;;;5050601;28;20528;-54
2021/08/30 07:36:21;;;;;;;19.27;11.05;;;18.10;98.20;;;;;;5051922;28;20128;-56
2021/08/30 07:38:47;;;;;;;20.25;13.00;;;18.20;97.20;;;;;;5050375;28;20090;-55
2021/08/30 07:41:15;;;;;;;22.77;14.13;;;18.30;96.50;;;;;;4999274;28;20033;-55
2021/08/30 07:43:41;;;;;;;18.42;12.82;;;18.30;97.00;;;;;;5049183;28;20041;-55
2021/08/30 07:46:08;;;;;;;19.85;12.68;;;18.30;97.50;;;;;;5052544;28;20037;-57
2021/08/30 07:48:34;;;;;;;21.65;12.70;;;18.30;97.80;;;;;;5048248;28;20048;-54
2021/08/30 07:50:59;;;;;;;21.77;12.82;;;18.40;97.10;;;;;;5049760;28;20568;-56
2021/08/30 07:53:27;;;;;;;18.45;12.63;;;18.40;97.30;;;;;;5050076;28;20045;-57
2021/08/30 07:55:56;;;;;;;20.05;12.13;;;18.40;97.50;;;;;;5050115;28;20033;-57
2021/08/30 07:58:23;;;;;;;17.30;11.27;;;18.40;97.30;;;;;;5036076;28;20037;-57
2021/08/30 08:00:49;;;;;;;21.23;12.00;;;18.40;96.50;;;;;;5015705;28;20073;-57
2021/08/30 08:03:14;;;;;;;15.77;10.63;;;18.40;96.70;;;;;;5040194;28;20076;-57
2021/08/30 08:05:40;;;;;;;21.23;12.07;;;18.40;96.50;;;;;;5036257;28;20041;-56
2021/08/30 08:08:09;;;;;;;19.48;11.65;;;18.40;96.80;;;;;;5038441;28;20096;-56
2021/08/30 08:10:34;;;;;;;20.27;12.52;;;18.50;96.20;;;;;;5046656;28;20064;-53
2021/08/30 08:13:00;;;;;;;18.45;12.55;;;18.60;96.30;;;;;;5005715;28;20071;-54
2021/08/30 08:15:26;;;;;;;18.58;11.45;;;18.50;96.70;;;;;;5004384;28;20457;-58
2021/08/30 08:17:52;;;;;;;17.95;11.23;;;18.60;95.90;;;;;;5010237;28;20438;-55
2021/08/30 08:20:18;;;;;;;20.00;11.40;;;18.70;95.70;;;;;;5025593;28;20052;-58
2021/08/30 08:22:44;;;;;;;15.13;10.65;;;18.60;96.00;;;;;;5022376;28;20114;-53
2021/08/30 08:25:11;;;;;;;17.10;11.40;;;18.80;94.70;;;;;;5054354;28;20036;-53
2021/08/30 08:27:38;;;;;;;15.18;10.90;;;18.70;94.80;;;;;;5052605;28;20040;-53
2021/08/30 08:30:05;;;;;;;16.67;10.23;;;18.70;95.00;;;;;;5032606;28;20103;-56
2021/08/30 08:32:31;;;;;;;18.85;10.57;;;18.70;95.00;;;;;;5038570;28;20033;-54
2021/08/30 08:35:00;;;;;;;15.63;9.07;;;18.80;95.00;;;;;;5055872;28;20087;-55
2021/08/30 08:37:25;;;;;;;11.98;8.55;;;18.80;95.20;;;;;;5054800;28;20048;-54
2021/08/30 08:39:51;;;;;;;14.65;9.40;;;18.90;94.00;;;;;;5053586;28;20037;-55
2021/08/30 08:42:17;;;;;;;13.70;9.48;;;19.00;94.30;;;;;;5019999;28;20474;-53
2021/08/30 08:44:47;;;;;;;13.38;9.27;;;19.10;94.30;;;;;;5054146;28;20489;-54
2021/08/30 08:47:16;;;;;;;15.00;8.35;;;19.20;94.10;;;;;;5052742;28;20037;-56
2021/08/30 08:49:42;;;;;;;14.05;9.48;;;19.40;93.10;;;;;;5017282;28;20048;-53
2021/08/30 08:52:09;;;;;;;13.55;8.60;;;19.60;92.70;;;;;;5049401;28;20060;-56
2021/08/30 08:54:34;;;;;;;14.00;8.48;;;19.60;92.60;;;;;;5000569;28;20124;-56
2021/08/30 08:57:03;;;;;;;12.48;8.60;;;19.70;92.10;;;;;;5046344;28;20119;-54
2021/08/30 08:59:29;;;;;;;13.75;8.43;;;19.70;91.80;;;;;;5035755;28;20503;-55
2021/08/30 09:01:59;;;;;;;11.98;8.20;;;19.70;91.20;;;;;;5053556;28;20029;-57
2021/08/30 09:04:35;;;;;;;11.52;7.82;;;19.60;91.20;;;;;;5052153;28;20067;-57
2021/08/30 09:07:12;;;;;;;13.07;8.93;;;19.50;92.00;;;;;;5052359;28;20116;-57
2021/08/30 09:09:40;;;;;;;13.48;8.32;;;19.50;91.80;;;;;;5051249;28;20124;-57
2021/08/30 09:12:18;;;;;;;11.43;8.20;;;19.60;91.70;;;;;;5045450;28;20049;-57
2021/08/30 09:14:43;;;;;;;11.93;8.45;;;19.90;90.50;;;;;;5036160;28;20048;-57
2021/08/30 09:17:10;;;;;;;13.43;8.60;;;20.00;90.60;;;;;;5049727;28;20401;-57
2021/08/30 09:19:37;;;;;;;9.68;7.25;;;20.10;90.10;;;;;;5026267;28;20119;-57
2021/08/30 09:22:06;;;;;;;12.80;8.15;;;20.10;88.50;;;;;;5053814;28;20052;-56
2021/08/30 09:24:35;;;;;;;11.45;7.30;;;20.10;90.20;;;;;;5052602;28;20451;-57
2021/08/30 09:27:04;;;;;;;10.13;7.35;;;20.00;90.10;;;;;;5017717;28;20124;-51
2021/08/30 09:29:33;;;;;;;11.15;7.55;;;20.00;90.20;;;;;;5039409;28;20032;-54
2021/08/30 09:32:07;;;;;;;10.77;7.63;;;20.10;88.40;;;;;;5044298;28;20120;-54
2021/08/30 09:34:38;;;;;;;11.02;7.43;;;20.20;87.60;;;;;;5034980;28;20033;-53
2021/08/30 09:37:06;;;;;;;11.15;7.18;;;20.20;86.70;;;;;;5053040;28;20029;-53
2021/08/30 09:39:33;;;;;;;10.18;7.50;;;20.30;85.20;;;;;;5053039;28;20041;-54
2021/08/30 09:42:00;;;;;;;10.90;7.50;;;20.30;88.10;;;;;;5005997;28;20598;-55
2021/08/30 09:44:28;;;;;;;11.60;7.32;;;20.20;89.60;;;;;;5049502;28;20393;-54
2021/08/30 09:46:57;;;;;;;14.00;7.18;;;20.20;88.20;;;;;;5051755;28;20037;-55
2021/08/30 09:49:27;;;;;;;10.43;6.55;;;20.10;86.60;;;;;;5032286;28;20028;-55
2021/08/30 09:51:53;;;;;;;10.50;6.88;;;20.00;86.10;;;;;;5052597;28;20077;-57
2021/08/30 09:54:20;;;;;;;11.45;7.45;;;19.90;86.10;;;;;;5052285;28;20079;-57
2021/08/30 09:56:48;;;;;;;9.07;6.93;;;20.00;85.80;;;;;;5050329;28;20032;-57
2021/08/30 09:59:19;;;;;;;10.65;6.85;;;20.10;87.30;;;;;;5034670;28;20036;-57
2021/08/30 10:01:45;;;;;;;9.93;6.88;;;20.00;87.10;;;;;;5035064;28;20076;-56
2021/08/30 10:04:11;;;;;;;9.18;6.88;;;20.00;87.20;;;;;;5052151;28;20033;-56
2021/08/30 10:06:40;;;;;;;7.43;6.47;;;20.00;87.20;;;;;;5033977;28;20033;-56
2021/08/30 10:09:12;;;;;;;10.82;6.97;;;19.90;88.40;;;;;;5053014;28;20570;-56
2021/08/30 10:11:39;;;;;;;10.73;6.88;;;20.00;87.80;;;;;;5052922;28;20405;-53
2021/08/30 10:14:08;;;;;;;9.32;7.32;;;20.20;87.70;;;;;;5052004;28;20040;-55
2021/08/30 10:16:35;;;;;;;11.07;6.88;;;20.20;87.80;;;;;;5052104;28;20037;-52
2021/08/30 10:19:01;;;;;;;10.55;6.93;;;20.20;87.30;;;;;;5050193;28;20116;-54
2021/08/30 10:21:28;;;;;;;10.65;7.22;;;20.30;87.00;;;;;;5008867;28;20049;-55
2021/08/30 10:23:54;;;;;;;9.27;6.68;;;20.30;86.40;;;;;;5033678;28;20060;-52
2021/08/30 10:26:22;;;;;;;13.25;7.15;;;20.20;86.10;;;;;;5051699;28;20068;-52
2021/08/30 10:28:48;;;;;;;11.60;7.05;;;20.10;87.30;;;;;;5051082;28;20045;-53
2021/08/30 10:31:21;;;;;;;8.55;6.68;;;20.00;88.50;;;;;;5051055;28;20036;-53
2021/08/30 10:33:54;;;;;;;8.52;7.30;;;20.10;87.60;;;;;;5034314;28;20045;-53
2021/08/30 10:36:27;;;;;;;10.32;6.38;;;20.10;88.60;;;;;;5051426;28;20108;-53
2021/08/30 10:39:05;;;;;;;12.73;6.65;;;20.20;86.90;;;;;;5035076;28;20037;-53
2021/08/30 10:41:37;;;;;;;10.68;6.28;;;20.30;86.70;;;;;;5046966;28;20163;-54
2021/08/30 10:44:23;;;;;;;10.95;6.50;;;20.40;85.80;;;;;;5041916;28;20044;-53
2021/08/30 10:46:51;;;;;;;8.90;6.00;;;20.40;87.20;;;;;;5052686;28;20413;-54
2021/08/30 10:49:20;;;;;;;9.77;6.30;;;20.60;85.80;;;;;;5052901;28;20311;-54
2021/08/30 10:51:48;;;;;;;9.75;6.40;;;20.80;84.40;;;;;;5047905;28;20046;-51
2021/08/30 10:54:17;;;;;;;7.28;5.68;;;20.90;85.00;;;;;;5031700;28;20061;-54
2021/08/30 10:56:58;;;;;;;6.25;4.95;;;21.00;83.30;;;;;;5048423;28;20037;-54
2021/08/30 10:59:27;;;;;;;8.23;5.82;;;20.90;81.80;;;;;;5052427;28;20056;-57
2021/08/30 11:02:03;;;;;;;7.47;5.95;;;20.80;81.60;;;;;;5019018;28;20106;-57
2021/08/30 11:04:39;;;;;;;10.48;5.63;;;20.70;82.30;;;;;;5032777;28;20447;-53
2021/08/30 11:07:07;;;;;;;10.40;6.15;;;20.80;81.80;;;;;;5050825;28;20043;-53
2021/08/30 11:09:34;;;;;;;10.00;6.25;;;20.90;82.70;;;;;;5006343;28;20103;-52
2021/08/30 11:12:08;;;;;;;8.82;5.40;;;21.10;80.90;;;;;;5046765;28;20554;-53
2021/08/30 11:14:35;;;;;;;7.70;5.35;;;21.10;79.70;;;;;;5050847;28;20173;-54
2021/08/30 11:17:01;;;;;;;11.05;5.55;;;21.10;78.80;;;;;;5050520;28;20037;-56
2021/08/30 11:19:27;;;;;;;7.22;5.13;;;21.00;78.20;;;;;;5052638;28;20048;-56
2021/08/30 11:21:58;;;;;;;7.13;4.63;;;21.00;78.30;;;;;;5050917;28;20045;-53
2021/08/30 11:24:43;;;;;;;8.50;5.10;;;20.90;76.20;;;;;;5038912;28;20045;-56
2021/08/30 11:27:29;;;;;;;7.07;5.07;;;20.80;78.80;;;;;;5050867;28;20723;-56
2021/08/30 11:30:18;;;;;;;7.10;4.95;;;20.90;78.10;;;;;;5048648;28;20033;-52
2021/08/30 11:32:48;;;;;;;6.30;4.57;;;21.00;77.10;;;;;;5031312;28;20417;-54
2021/08/30 11:35:14;;;;;;;8.77;5.20;;;21.10;78.00;;;;;;5048812;28;20041;-54
2021/08/30 11:37:40;;;;;;;7.05;5.38;;;21.40;75.90;;;;;;5049282;28;20546;-54
2021/08/30 11:40:09;;;;;;;7.15;5.32;;;21.40;76.70;;;;;;5045665;28;20059;-56
2021/08/30 11:42:36;;;;;;;7.72;5.50;;;21.50;77.70;;;;;;5038919;28;20457;-56
2021/08/30 11:45:10;;;;;;;9.43;5.15;;;21.40;78.40;;;;;;5051035;28;20148;-55
2021/08/30 11:47:46;;;;;;;7.45;5.50;;;21.40;78.40;;;;;;5001724;28;20041;-55
2021/08/30 11:50:12;;;;;;;6.93;5.10;;;21.40;78.70;;;;;;5010558;28;20067;-53
2021/08/30 11:52:40;;;;;;;7.10;5.13;;;21.20;79.20;;;;;;5051284;28;20485;-53
2021/08/30 11:55:13;;;;;;;8.23;5.40;;;21.10;79.30;;;;;;5050773;28;20592;-53
2021/08/30 11:57:58;;;;;;;7.78;5.30;;;21.10;79.20;;;;;;5046892;28;20045;-56
2021/08/30 12:00:23;;;;;;;6.05;5.03;;;21.20;79.60;;;;;;5034165;28;20044;-53
2021/08/30 12:02:55;;;;;;;6.90;5.22;;;21.20;80.10;;;;;;5054529;28;20444;-55
2021/08/30 12:05:27;;;;;;;7.43;5.50;;;21.40;76.70;;;;;;5056350;28;20037;-52
2021/08/30 12:07:54;;;;;;;8.95;5.47;;;21.40;77.00;;;;;;5053819;28;20068;-54
2021/08/30 12:10:21;;;;;;;7.78;5.32;;;21.50;77.20;;;;;;5018812;28;20053;-56
2021/08/30 12:15:25;;;;;;;7.72;4.93;;;21.50;78.90;;;;;;5017424;28;20051;-55
2021/08/30 12:17:55;;;;;;;9.48;5.88;;;21.50;74.80;;;;;;5006363;28;20051;-54
2021/08/30 12:20:33;;;;;;;8.98;5.85;;;21.40;76.90;;;;;;5028530;28;20044;-55
2021/08/30 12:23:02;;;;;;;7.90;5.57;;;21.30;78.30;;;;;;5053817;28;20048;-56
2021/08/30 12:25:41;;;;;;;8.65;5.85;;;21.20;79.20;;;;;;5054582;28;20532;-54
2021/08/30 12:28:09;;;;;;;9.90;5.22;;;21.20;78.60;;;;;;5038869;28;20079;-56
2021/08/30 12:30:45;;;;;;;7.53;5.32;;;21.30;78.30;;;;;;5003996;28;20041;-57
2021/08/30 12:33:13;;;;;;;8.95;4.90;;;21.10;78.60;;;;;;5039448;28;20037;-57
2021/08/30 12:35:51;;;;;;;9.27;5.72;;;21.00;78.10;;;;;;5052844;28;20069;-57
2021/08/30 12:38:22;;;;;;;9.18;5.45;;;20.90;78.80;;;;;;5018979;28;20116;-57
2021/08/30 12:41:00;;;;;;;6.82;5.25;;;21.00;80.00;;;;;;5054746;28;20029;-56
2021/08/30 12:43:30;;;;;;;10.40;5.00;;;21.20;79.00;;;;;;5054088;28;20076;-56
2021/08/30 12:45:57;;;;;;;9.05;5.78;;;21.20;79.40;;;;;;5036903;28;20444;-56